Time;durP1;ratioP1;P1;durP2;ratioP2;P2;SDS_P1;SDS_P2;PMS_P1;PMS_P2;Temp;Humidity;BMP_temperature;BMP_pressure;BME280_temperature;BME280_humidity;BME280_pressure;Samples;Min_cycle;Max_cycle;Signal;HPM_P1;HPM_P2
2022/09/02 00:01:53;;;;;;;4.83;1.60;;;;;;;;;;5084709;28;20055;-67
2022/09/02 00:04:20;;;;;;;4.33;1.40;;;;;;;;;;5083890;28;20028;-67
2022/09/02 00:06:46;;;;;;;4.60;1.50;;;;;;;;;;5086274;28;20020;-67
2022/09/02 00:09:13;;;;;;;3.53;1.60;;;;;;;;;;5085203;28;20047;-68
2022/09/02 00:11:39;;;;;;;4.07;1.50;;;;;;;;;;5084689;28;20028;-67
2022/09/02 00:14:06;;;;;;;3.00;1.40;;;;;;;;;;5083188;28;20071;-68
2022/09/02 00:16:32;;;;;;;2.53;1.20;;;;;;;;;;5081595;28;20039;-67
2022/09/02 00:18:58;;;;;;;3.60;1.40;;;;;;;;;;5084594;28;20023;-68
2022/09/02 00:21:24;;;;;;;3.30;1.40;;;;;;;;;;5084898;28;20036;-68
2022/09/02 00:23:50;;;;;;;3.77;1.40;;;;;;;;;;5086407;28;20045;-68
2022/09/02 00:26:16;;;;;;;4.60;1.40;;;;;;;;;;5082804;28;20426;-67
2022/09/02 00:28:42;;;;;;;3.13;1.30;;;;;;;;;;5086372;28;20035;-67
2022/09/02 00:31:07;;;;;;;3.17;1.57;;;;;;;;;;5083958;28;20024;-67
2022/09/02 00:33:32;;;;;;;3.53;1.30;;;;;;;;;;5086067;28;20039;-68
2022/09/02 00:35:59;;;;;;;3.60;1.30;;;;;;;;;;5084689;28;20063;-68
2022/09/02 00:38:25;;;;;;;4.00;1.10;;;;;;;;;;5081584;28;20043;-67
2022/09/02 00:40:50;;;;;;;2.10;1.10;;;;;;;;;;5083530;28;20024;-66
2022/09/02 00:43:23;;;;;;;2.37;1.20;;;;;;;;;;5086535;28;20027;-68
2022/09/02 00:45:48;;;;;;;4.10;1.27;;;;;;;;;;5085546;28;20081;-68
2022/09/02 00:48:13;;;;;;;3.00;1.33;;;;;;;;;;5082953;28;20115;-67
2022/09/02 00:50:38;;;;;;;3.47;1.20;;;;;;;;;;5086654;28;20024;-67
2022/09/02 00:53:06;;;;;;;5.50;1.40;;;;;;;;;;5066240;28;20380;-68
2022/09/02 00:55:35;;;;;;;2.93;1.20;;;;;;;;;;5082625;28;20032;-67
2022/09/02 00:58:12;;;;;;;3.23;1.23;;;;;;;;;;5085593;28;20023;-68
2022/09/02 01:00:41;;;;;;;3.70;1.30;;;;;;;;;;5087008;28;20499;-67
2022/09/02 01:03:08;;;;;;;3.33;1.10;;;;;;;;;;5084092;28;20404;-67
2022/09/02 01:05:35;;;;;;;2.43;1.30;;;;;;;;;;5085857;28;20039;-67
2022/09/02 01:08:02;;;;;;;2.93;1.37;;;;;;;;;;5084061;28;20062;-68
2022/09/02 01:10:29;;;;;;;3.43;1.40;;;;;;;;;;5084829;28;20414;-68
2022/09/02 01:12:58;;;;;;;4.07;1.30;;;;;;;;;;5080600;28;20036;-68
2022/09/02 01:15:24;;;;;;;4.17;1.60;;;;;;;;;;5084783;28;20665;-67
2022/09/02 01:17:50;;;;;;;3.90;1.30;;;;;;;;;;5084925;28;20024;-68
2022/09/02 01:20:20;;;;;;;2.53;1.40;;;;;;;;;;5085672;28;20464;-67
2022/09/02 01:22:45;;;;;;;2.40;1.30;;;;;;;;;;5083085;28;20110;-68
2022/09/02 01:25:13;;;;;;;2.53;1.30;;;;;;;;;;5083996;28;20153;-68
2022/09/02 01:27:39;;;;;;;6.03;1.33;;;;;;;;;;5085476;28;20472;-67
2022/09/02 01:30:09;;;;;;;3.67;1.57;;;;;;;;;;5084621;28;20031;-68
2022/09/02 01:32:34;;;;;;;3.77;1.60;;;;;;;;;;5085791;28;20114;-67
2022/09/02 01:34:59;;;;;;;4.77;1.50;;;;;;;;;;5082890;28;20103;-68
2022/09/02 01:37:24;;;;;;;4.27;1.80;;;;;;;;;;5087318;28;20141;-67
2022/09/02 01:39:51;;;;;;;4.43;1.73;;;;;;;;;;5086341;28;20387;-68
2022/09/02 01:42:16;;;;;;;4.13;1.53;;;;;;;;;;5083528;28;20024;-67
2022/09/02 01:44:44;;;;;;;4.20;1.60;;;;;;;;;;5085972;28;20024;-67
2022/09/02 01:47:10;;;;;;;5.43;1.60;;;;;;;;;;5089940;28;20107;-67
2022/09/02 01:49:36;;;;;;;3.53;1.50;;;;;;;;;;5089797;28;20078;-68
2022/09/02 01:52:01;;;;;;;3.70;1.50;;;;;;;;;;5090645;28;20297;-68
2022/09/02 01:54:26;;;;;;;4.00;1.67;;;;;;;;;;5089609;28;20020;-67
2022/09/02 01:56:52;;;;;;;3.47;1.43;;;;;;;;;;5089146;28;20038;-68
2022/09/02 01:59:17;;;;;;;5.50;1.80;;;;;;;;;;5089189;28;20060;-68
2022/09/02 02:01:45;;;;;;;5.23;1.60;;;;;;;;;;5087955;28;20034;-67
2022/09/02 02:04:11;;;;;;;5.40;1.87;;;;;;;;;;5085778;28;20040;-67
2022/09/02 02:06:38;;;;;;;4.47;1.90;;;;;;;;;;5090231;28;20016;-68
2022/09/02 02:09:03;;;;;;;4.33;1.60;;;;;;;;;;5088968;28;20056;-67
2022/09/02 02:11:29;;;;;;;4.50;1.83;;;;;;;;;;5088653;28;20060;-67
2022/09/02 02:13:54;;;;;;;4.87;1.73;;;;;;;;;;5088590;28;20655;-68
2022/09/02 02:16:19;;;;;;;4.57;2.13;;;;;;;;;;5090006;28;20027;-67
2022/09/02 02:18:44;;;;;;;5.80;1.90;;;;;;;;;;5088056;28;20042;-67
2022/09/02 02:21:10;;;;;;;6.50;1.93;;;;;;;;;;5090757;28;20028;-67
2022/09/02 02:23:35;;;;;;;4.80;1.87;;;;;;;;;;5090841;28;20050;-67
2022/09/02 02:26:01;;;;;;;7.87;2.03;;;;;;;;;;5091253;28;20016;-67
2022/09/02 02:28:26;;;;;;;6.73;1.90;;;;;;;;;;5086092;28;20438;-67
2022/09/02 02:30:51;;;;;;;6.43;2.20;;;;;;;;;;5089694;28;20468;-67
2022/09/02 02:33:16;;;;;;;3.97;2.00;;;;;;;;;;5086721;28;20365;-67
2022/09/02 02:35:42;;;;;;;3.93;1.90;;;;;;;;;;5087398;28;20059;-67
2022/09/02 02:38:09;;;;;;;4.97;1.87;;;;;;;;;;5091168;28;20056;-67
2022/09/02 02:40:34;;;;;;;6.50;2.00;;;;;;;;;;5087576;28;20070;-67
2022/09/02 02:43:00;;;;;;;5.50;2.20;;;;;;;;;;5089351;28;20099;-67
2022/09/02 02:45:25;;;;;;;5.47;2.33;;;;;;;;;;5089366;28;20028;-67
2022/09/02 02:47:51;;;;;;;4.67;1.90;;;;;;;;;;5085484;28;20024;-67
2022/09/02 02:50:18;;;;;;;7.50;2.30;;;;;;;;;;5089356;28;20024;-67
2022/09/02 02:52:43;;;;;;;7.20;2.23;;;;;;;;;;5086939;28;20064;-67
2022/09/02 02:55:09;;;;;;;11.77;2.80;;;;;;;;;;5090050;28;20121;-67
2022/09/02 02:57:35;;;;;;;8.80;2.53;;;;;;;;;;5086218;28;20035;-67
2022/09/02 03:00:08;;;;;;;8.27;2.50;;;;;;;;;;5089834;28;20024;-67
2022/09/02 03:02:33;;;;;;;8.27;2.60;;;;;;;;;;5088299;28;20115;-67
2022/09/02 03:05:00;;;;;;;9.90;2.70;;;;;;;;;;5087031;28;20103;-67
2022/09/02 03:07:25;;;;;;;6.20;2.40;;;;;;;;;;5087674;28;20016;-67
2022/09/02 03:09:51;;;;;;;6.17;2.50;;;;;;;;;;5089353;28;20073;-67
2022/09/02 03:12:16;;;;;;;8.03;2.30;;;;;;;;;;5089355;28;20354;-67
2022/09/02 03:14:42;;;;;;;5.93;2.20;;;;;;;;;;5084969;28;20361;-67
2022/09/02 03:17:08;;;;;;;7.97;2.47;;;;;;;;;;5088726;28;20020;-67
2022/09/02 03:19:33;;;;;;;6.07;2.17;;;;;;;;;;5088621;28;20031;-67
2022/09/02 03:21:58;;;;;;;7.97;2.20;;;;;;;;;;5087464;28;20016;-68
2022/09/02 03:24:24;;;;;;;10.67;2.40;;;;;;;;;;5088300;28;20024;-67
2022/09/02 03:26:49;;;;;;;7.90;2.50;;;;;;;;;;5086917;28;20515;-67
2022/09/02 03:29:14;;;;;;;5.47;2.37;;;;;;;;;;5084933;28;20024;-67
2022/09/02 03:31:39;;;;;;;8.47;2.70;;;;;;;;;;5088013;28;20020;-67
2022/09/02 03:34:05;;;;;;;7.40;2.63;;;;;;;;;;5086941;28;20560;-67
2022/09/02 03:36:31;;;;;;;9.93;2.60;;;;;;;;;;5086357;28;20032;-67
2022/09/02 03:38:57;;;;;;;5.80;2.20;;;;;;;;;;5086562;28;20467;-67
2022/09/02 03:41:22;;;;;;;7.77;2.47;;;;;;;;;;5086884;28;20043;-67
2022/09/02 03:43:48;;;;;;;6.23;2.10;;;;;;;;;;5087595;28;20028;-67
2022/09/02 03:46:13;;;;;;;5.40;2.40;;;;;;;;;;5088282;28;20012;-67
2022/09/02 03:48:39;;;;;;;7.33;2.50;;;;;;;;;;5086868;28;20024;-67
2022/09/02 03:51:05;;;;;;;8.77;2.53;;;;;;;;;;5088521;28;20016;-67
2022/09/02 03:53:30;;;;;;;7.53;2.47;;;;;;;;;;5087675;28;20032;-67
2022/09/02 03:55:55;;;;;;;8.97;2.50;;;;;;;;;;5070832;28;20464;-67
2022/09/02 03:58:22;;;;;;;5.20;2.43;;;;;;;;;;5084454;28;20103;-68
2022/09/02 04:00:51;;;;;;;8.57;2.90;;;;;;;;;;5086044;28;20040;-68
2022/09/02 04:03:17;;;;;;;7.60;2.90;;;;;;;;;;5086023;28;20028;-67
2022/09/02 04:05:45;;;;;;;7.63;2.80;;;;;;;;;;5084951;28;20039;-67
2022/09/02 04:08:11;;;;;;;8.87;2.60;;;;;;;;;;5086158;28;20111;-67
2022/09/02 04:10:37;;;;;;;6.33;2.70;;;;;;;;;;5088589;28;20118;-67
2022/09/02 04:13:02;;;;;;;10.70;2.70;;;;;;;;;;5087471;28;20042;-67
2022/09/02 04:15:27;;;;;;;11.00;2.80;;;;;;;;;;5085197;28;20016;-67
2022/09/02 04:17:52;;;;;;;7.63;2.80;;;;;;;;;;5088988;28;20063;-67
2022/09/02 04:20:18;;;;;;;8.53;3.00;;;;;;;;;;5084853;28;20028;-67
2022/09/02 04:22:43;;;;;;;7.20;2.80;;;;;;;;;;5087394;28;20036;-67
2022/09/02 04:25:08;;;;;;;9.07;2.93;;;;;;;;;;5086736;28;20028;-67
2022/09/02 04:27:34;;;;;;;12.87;3.60;;;;;;;;;;5086034;28;20048;-67
2022/09/02 04:29:59;;;;;;;10.33;3.43;;;;;;;;;;5083131;28;20098;-67
2022/09/02 04:32:25;;;;;;;13.23;3.17;;;;;;;;;;5079965;28;20038;-67
2022/09/02 04:34:50;;;;;;;11.23;2.77;;;;;;;;;;5082187;28;20024;-67
2022/09/02 04:37:15;;;;;;;9.20;3.00;;;;;;;;;;5077954;28;20020;-68
2022/09/02 04:39:41;;;;;;;11.07;3.03;;;;;;;;;;5086421;28;20418;-67
2022/09/02 04:42:06;;;;;;;7.03;2.90;;;;;;;;;;5086374;28;20038;-67
2022/09/02 04:44:32;;;;;;;9.10;3.00;;;;;;;;;;5086654;28;20032;-67
2022/09/02 04:46:57;;;;;;;7.07;2.37;;;;;;;;;;5085452;28;20012;-67
2022/09/02 04:49:22;;;;;;;5.97;2.70;;;;;;;;;;5079133;28;20058;-67
2022/09/02 04:51:49;;;;;;;5.23;2.43;;;;;;;;;;5081000;28;20059;-67
2022/09/02 04:54:14;;;;;;;7.37;3.10;;;;;;;;;;5083512;28;20108;-67
2022/09/02 04:56:39;;;;;;;7.27;3.03;;;;;;;;;;5079481;28;20107;-66
2022/09/02 04:59:05;;;;;;;5.80;2.70;;;;;;;;;;5081454;28;20032;-67
2022/09/02 05:01:32;;;;;;;9.87;2.83;;;;;;;;;;5073749;28;20032;-67
2022/09/02 05:03:58;;;;;;;5.80;2.70;;;;;;;;;;5076120;28;20518;-67
2022/09/02 05:06:27;;;;;;;7.13;2.57;;;;;;;;;;5083734;28;20020;-67
2022/09/02 05:08:53;;;;;;;6.83;2.60;;;;;;;;;;5088280;28;20095;-67
2022/09/02 05:11:20;;;;;;;5.93;2.83;;;;;;;;;;5089853;28;20107;-67
2022/09/02 05:13:53;;;;;;;5.83;2.53;;;;;;;;;;5089765;28;20400;-67
2022/09/02 05:16:19;;;;;;;9.83;3.27;;;;;;;;;;5089923;28;20222;-67
2022/09/02 05:18:45;;;;;;;11.23;2.90;;;;;;;;;;5069768;28;20086;-67
2022/09/02 05:21:10;;;;;;;11.03;3.03;;;;;;;;;;5092846;28;20468;-67
2022/09/02 05:23:36;;;;;;;7.93;2.60;;;;;;;;;;5092619;28;20027;-66
2022/09/02 05:26:05;;;;;;;10.17;3.03;;;;;;;;;;5088177;28;20033;-66
2022/09/02 05:28:30;;;;;;;6.43;2.70;;;;;;;;;;5093832;28;20379;-66
2022/09/02 05:31:00;;;;;;;7.17;2.70;;;;;;;;;;5093018;28;20024;-67
2022/09/02 05:33:26;;;;;;;7.93;2.60;;;;;;;;;;5091848;28;20504;-67
2022/09/02 05:35:53;;;;;;;7.47;2.80;;;;;;;;;;5093044;28;20028;-67
2022/09/02 05:38:19;;;;;;;8.20;2.80;;;;;;;;;;5091311;28;20021;-67
2022/09/02 05:40:44;;;;;;;16.50;2.90;;;;;;;;;;5091017;28;20369;-66
2022/09/02 05:43:09;;;;;;;10.80;2.60;;;;;;;;;;5092107;28;20532;-66
2022/09/02 05:45:36;;;;;;;6.63;2.63;;;;;;;;;;5088357;28;20451;-67
2022/09/02 05:49:04;;;;;;;8.70;2.63;;;;;;;;;;5092848;28;20035;-67
2022/09/02 05:50:46;;;;;;;8.40;2.40;;;;;;;;;;5094046;28;20027;-67
2022/09/02 05:53:12;;;;;;;7.27;1.90;;;;;;;;;;5093029;28;20031;-67
2022/09/02 05:55:37;;;;;;;3.30;1.70;;;;;;;;;;5090935;28;20377;-67
2022/09/02 05:58:02;;;;;;;4.93;1.60;;;;;;;;;;5092979;28;20105;-67
2022/09/02 06:00:29;;;;;;;7.85;1.60;;;;;;;;;;5091112;28;20043;-67
2022/09/02 06:02:54;;;;;;;3.55;1.60;;;;;;;;;;5092752;28;20024;-67
2022/09/02 06:05:20;;;;;;;6.35;1.50;;;;;;;;;;5091167;28;20050;-68
2022/09/02 06:07:45;;;;;;;4.03;1.60;;;;;;;;;;5092495;28;20027;-67
2022/09/02 06:10:11;;;;;;;6.03;1.50;;;;;;;;;;5090706;28;20024;-67
2022/09/02 06:12:36;;;;;;;3.13;1.40;;;;;;;;;;5092980;28;20020;-67
2022/09/02 06:15:02;;;;;;;7.55;1.52;;;;;;;;;;5092598;28;20016;-67
2022/09/02 06:17:27;;;;;;;4.63;1.50;;;;;;;;;;5092853;28;20012;-67
2022/09/02 06:19:53;;;;;;;3.28;1.48;;;;;;;;;;5090585;28;20030;-67
2022/09/02 06:22:18;;;;;;;3.53;1.50;;;;;;;;;;5091863;28;20062;-67
2022/09/02 06:24:43;;;;;;;4.75;1.30;;;;;;;;;;5091967;28;20059;-67
2022/09/02 06:27:08;;;;;;;4.75;1.50;;;;;;;;;;5092090;28;20035;-67
2022/09/02 06:29:34;;;;;;;6.28;1.40;;;;;;;;;;5089743;28;20036;-67
2022/09/02 06:31:59;;;;;;;4.55;1.50;;;;;;;;;;5091278;28;20016;-67
2022/09/02 06:34:26;;;;;;;4.43;1.63;;;;;;;;;;5091147;28;20106;-67
2022/09/02 06:36:51;;;;;;;4.28;1.55;;;;;;;;;;5071921;28;20044;-67
2022/09/02 06:39:18;;;;;;;3.25;1.33;;;;;;;;;;5091093;28;20083;-66
2022/09/02 06:41:45;;;;;;;3.30;1.33;;;;;;;;;;5072221;28;20084;-67
2022/09/02 06:44:11;;;;;;;4.28;1.50;;;;;;;;;;5092041;28;20020;-67
2022/09/02 06:46:38;;;;;;;3.97;1.45;;;;;;;;;;5090199;28;20073;-67
2022/09/02 06:49:04;;;;;;;5.43;1.35;;;;;;;;;;5091237;28;20049;-67
2022/09/02 06:51:34;;;;;;;3.22;1.40;;;;;;;;;;5089385;28;20365;-67
2022/09/02 06:54:00;;;;;;;4.32;1.40;;;;;;;;;;5092229;28;20028;-67
2022/09/02 06:56:25;;;;;;;2.80;1.30;;;;;;;;;;5088122;28;20473;-67
2022/09/02 06:58:50;;;;;;;6.45;2.22;;;;;;;;;;5089881;28;20043;-67
2022/09/02 07:01:17;;;;;;;4.20;1.50;;;;;;;;;;5091671;28;20028;-67
2022/09/02 07:06:26;;;;;;;4.18;1.30;;;;;;;;;;5088201;28;20031;-67
2022/09/02 07:08:52;;;;;;;3.47;1.38;;;;;;;;;;5090617;28;20028;-67
2022/09/02 07:11:19;;;;;;;3.53;1.20;;;;;;;;;;5090908;28;20051;-67
2022/09/02 07:13:44;;;;;;;3.05;1.20;;;;;;;;;;5090970;28;20030;-67
2022/09/02 07:16:10;;;;;;;3.20;1.15;;;;;;;;;;5089654;28;20099;-67
2022/09/02 07:18:35;;;;;;;3.28;1.20;;;;;;;;;;5090977;28;20082;-67
2022/09/02 07:21:01;;;;;;;4.72;1.48;;;;;;;;;;5089634;28;20388;-68
2022/09/02 07:23:27;;;;;;;3.67;1.30;;;;;;;;;;5090678;28;20361;-67
2022/09/02 07:25:54;;;;;;;3.20;1.42;;;;;;;;;;5090638;28;20066;-69
2022/09/02 07:28:19;;;;;;;5.03;1.23;;;;;;;;;;5088296;28;20016;-68
2022/09/02 07:30:44;;;;;;;5.10;1.02;;;;;;;;;;5090838;28;20426;-67
2022/09/02 07:33:12;;;;;;;3.22;1.20;;;;;;;;;;5092032;28;20024;-67
2022/09/02 07:35:38;;;;;;;7.70;1.83;;;;;;;;;;5086791;28;20024;-67
2022/09/02 07:38:04;;;;;;;7.13;1.83;;;;;;;;;;5090925;28;20739;-68
2022/09/02 07:40:29;;;;;;;4.45;1.48;;;;;;;;;;5089316;28;20353;-67
2022/09/02 07:42:54;;;;;;;3.10;1.13;;;;;;;;;;5089960;28;20447;-67
2022/09/02 07:45:20;;;;;;;5.75;1.50;;;;;;;;;;5089429;28;20016;-67
2022/09/02 07:47:45;;;;;;;5.85;1.45;;;;;;;;;;5089879;28;20028;-68
2022/09/02 07:50:12;;;;;;;4.05;1.30;;;;;;;;;;5089390;28;20019;-68
2022/09/02 07:52:37;;;;;;;4.18;1.27;;;;;;;;;;5089451;28;20020;-67
2022/09/02 07:55:03;;;;;;;3.78;1.20;;;;;;;;;;5090344;28;20016;-67
2022/09/02 07:57:28;;;;;;;4.95;1.35;;;;;;;;;;5089692;28;20024;-68
2022/09/02 07:59:53;;;;;;;5.68;1.40;;;;;;;;;;5089662;28;20421;-67
2022/09/02 08:02:18;;;;;;;4.07;1.40;;;;;;;;;;5090286;28;20481;-67
2022/09/02 08:04:44;;;;;;;4.10;1.38;;;;;;;;;;5090286;28;20099;-67
2022/09/02 08:07:10;;;;;;;7.00;1.30;;;;;;;;;;5087982;28;20027;-67
2022/09/02 08:09:35;;;;;;;3.42;1.23;;;;;;;;;;5090063;28;20435;-67
2022/09/02 08:12:00;;;;;;;5.05;1.25;;;;;;;;;;5090355;28;20020;-67
2022/09/02 08:14:27;;;;;;;3.78;1.40;;;;;;;;;;5090441;28;20024;-67
2022/09/02 08:16:53;;;;;;;2.78;1.30;;;;;;;;;;5090121;28;20016;-68
2022/09/02 08:19:20;;;;;;;3.17;1.48;;;;;;;;;;5086055;28;20035;-68
2022/09/02 08:21:45;;;;;;;4.90;1.50;;;;;;;;;;5084796;28;20110;-68
2022/09/02 08:24:10;;;;;;;5.13;1.20;;;;;;;;;;5091154;28;20154;-68
2022/09/02 08:26:38;;;;;;;3.92;1.20;;;;;;;;;;5090019;28;20016;-67
2022/09/02 08:29:04;;;;;;;5.90;1.20;;;;;;;;;;5088522;28;20106;-67
2022/09/02 08:31:30;;;;;;;3.63;1.15;;;;;;;;;;5090182;28;20107;-70
2022/09/02 08:33:56;;;;;;;5.82;1.30;;;;;;;;;;5090134;28;20046;-70
2022/09/02 08:36:22;;;;;;;4.38;1.42;;;;;;;;;;5089054;28;20411;-68
2022/09/02 08:38:47;;;;;;;2.13;1.10;;;;;;;;;;5089837;28;20078;-67
2022/09/02 08:41:12;;;;;;;2.22;1.15;;;;;;;;;;5089846;28;20027;-67
2022/09/02 08:43:40;;;;;;;4.00;1.20;;;;;;;;;;5090070;28;20024;-67
2022/09/02 08:46:08;;;;;;;4.28;1.20;;;;;;;;;;5088225;28;20016;-69
2022/09/02 08:48:59;;;;;;;4.68;1.35;;;;;;;;;;5087922;28;20024;-67
2022/09/02 08:51:32;;;;;;;4.53;1.20;;;;;;;;;;5081914;28;20032;-67
2022/09/02 08:54:01;;;;;;;4.00;1.20;;;;;;;;;;5089479;28;20016;-67
2022/09/02 08:56:27;;;;;;;3.90;1.10;;;;;;;;;;5092323;28;20103;-67
2022/09/02 08:58:52;;;;;;;3.15;1.10;;;;;;;;;;5093637;28;20039;-67
2022/09/02 09:01:47;;;;;;;3.97;0.95;;;;;;;;;;5093890;28;20020;-67
2022/09/02 09:04:25;;;;;;;3.30;1.00;;;;;;;;;;5084218;28;20032;-67
2022/09/02 09:06:53;;;;;;;4.22;1.00;;;;;;;;;;5090348;28;20400;-68
2022/09/02 09:09:24;;;;;;;2.67;1.00;;;;;;;;;;5090121;28;20110;-69
2022/09/02 09:11:50;;;;;;;;;;;;;;;;;;5094220;28;20435;-68
2022/09/02 09:14:19;;;;;;;3.38;1.00;;;;;;;;;;5093437;28;19940;-69
2022/09/02 09:16:53;;;;;;;11.43;1.15;;;;;;;;;;5092068;28;20073;-67
2022/09/02 09:19:30;;;;;;;6.03;1.00;;;;;;;;;;5093752;28;20016;-68
2022/09/02 09:21:59;;;;;;;4.30;1.00;;;;;;;;;;5092077;28;20077;-70
2022/09/02 09:24:33;;;;;;;2.33;0.95;;;;;;;;;;5092561;28;20020;-69
2022/09/02 09:27:00;;;;;;;2.67;0.88;;;;;;;;;;5096584;28;20628;-69
2022/09/02 09:29:25;;;;;;;1.92;0.80;;;;;;;;;;5092745;28;20073;-70
2022/09/02 09:31:57;;;;;;;7.07;0.98;;;;;;;;;;5090506;28;20020;-68
2022/09/02 09:34:22;;;;;;;4.03;1.00;;;;;;;;;;5093282;28;20043;-67
2022/09/02 09:36:50;;;;;;;3.47;1.02;;;;;;;;;;5090698;28;20059;-68
2022/09/02 09:39:16;;;;;;;2.50;0.88;;;;;;;;;;5092416;28;20024;-69
2022/09/02 09:41:42;;;;;;;6.43;1.02;;;;;;;;;;5092908;28;20119;-68
2022/09/02 09:44:07;;;;;;;7.90;0.90;;;;;;;;;;5093224;28;20099;-67
2022/09/02 09:46:33;;;;;;;2.75;1.10;;;;;;;;;;5092980;28;20017;-69
2022/09/02 09:48:58;;;;;;;9.32;1.00;;;;;;;;;;5091317;28;20027;-67
2022/09/02 09:51:24;;;;;;;3.38;0.90;;;;;;;;;;5091700;28;20020;-67
2022/09/02 09:53:49;;;;;;;2.63;1.00;;;;;;;;;;5093535;28;20689;-69
2022/09/02 09:56:14;;;;;;;2.55;1.00;;;;;;;;;;5092877;28;20100;-68
2022/09/02 09:58:39;;;;;;;2.28;0.90;;;;;;;;;;5091791;28;20024;-68
2022/09/02 10:01:10;;;;;;;3.10;1.05;;;;;;;;;;5089477;28;20103;-69
2022/09/02 10:03:36;;;;;;;;;;;;;;;;;;5088022;28;20429;-70
2022/09/02 10:06:16;;;;;;;2.63;0.77;;;;;;;;;;5090511;28;20550;-67
2022/09/02 10:08:52;;;;;;;5.50;1.05;;;;;;;;;;5073417;28;20043;-68
2022/09/02 10:11:22;;;;;;;2.58;0.93;;;;;;;;;;5088952;28;20047;-69
2022/09/02 10:13:47;;;;;;;5.90;0.70;;;;;;;;;;5092489;28;20480;-67
2022/09/02 10:16:12;;;;;;;2.45;0.80;;;;;;;;;;5092373;28;20035;-68
2022/09/02 10:18:42;;;;;;;4.97;1.15;;;;;;;;;;5093066;28;20020;-67
2022/09/02 10:21:10;;;;;;;2.92;0.90;;;;;;;;;;5087397;28;20461;-68
2022/09/02 10:23:35;;;;;;;3.45;0.88;;;;;;;;;;5092636;28;20027;-67
2022/09/02 10:26:10;;;;;;;2.53;0.90;;;;;;;;;;5088459;28;20012;-68
2022/09/02 10:28:54;;;;;;;3.30;0.80;;;;;;;;;;5074334;28;20019;-69
2022/09/02 10:31:20;;;;;;;3.33;0.90;;;;;;;;;;5091899;28;20380;-68
2022/09/02 10:33:51;;;;;;;3.20;0.90;;;;;;;;;;5092503;28;20028;-69
2022/09/02 10:36:16;;;;;;;;;;;;;;;;;;5088316;28;20036;-69
2022/09/02 10:38:49;;;;;;;1.95;0.80;;;;;;;;;;5092424;28;19954;-68
2022/09/02 10:41:24;;;;;;;3.55;1.00;;;;;;;;;;5092343;28;20085;-68
2022/09/02 10:44:03;;;;;;;3.05;0.70;;;;;;;;;;5088445;28;20111;-67
2022/09/02 10:46:34;;;;;;;3.90;0.80;;;;;;;;;;5092470;28;20466;-68
2022/09/02 10:49:00;;;;;;;3.42;0.80;;;;;;;;;;5089723;28;20024;-67
2022/09/02 10:51:36;;;;;;;2.75;0.70;;;;;;;;;;5091571;28;20415;-68
2022/09/02 10:54:08;;;;;;;2.30;0.70;;;;;;;;;;5091621;28;20098;-67
2022/09/02 10:56:46;;;;;;;2.90;0.70;;;;;;;;;;5090667;28;20024;-67
2022/09/02 10:59:22;;;;;;;3.95;0.80;;;;;;;;;;5089537;28;20024;-67
2022/09/02 11:01:47;;;;;;;1.42;0.70;;;;;;;;;;5091772;28;20527;-67
2022/09/02 11:04:18;;;;;;;5.55;0.77;;;;;;;;;;5090066;28;20126;-67
2022/09/02 11:06:44;;;;;;;12.68;1.27;;;;;;;;;;5089033;28;20108;-67
2022/09/02 11:09:20;;;;;;;3.90;0.80;;;;;;;;;;5087600;28;20040;-67
2022/09/02 11:11:51;;;;;;;4.35;1.00;;;;;;;;;;5091645;28;20020;-67
2022/09/02 11:14:25;;;;;;;3.15;0.70;;;;;;;;;;5090839;28;20031;-67
2022/09/02 11:16:50;;;;;;;3.28;0.77;;;;;;;;;;5090910;28;20681;-67
2022/09/02 11:19:15;;;;;;;6.95;0.90;;;;;;;;;;5090845;28;20107;-67
2022/09/02 11:21:47;;;;;;;2.45;0.60;;;;;;;;;;5089487;28;20025;-67
2022/09/02 11:24:12;;;;;;;;;;;;;;;;;;5091690;28;20055;-67
2022/09/02 11:26:57;;;;;;;1.60;0.75;;;;;;;;;;5090338;28;20407;-68
2022/09/02 11:29:31;;;;;;;3.60;1.00;;;;;;;;;;5091287;28;20246;-67
2022/09/02 11:32:01;;;;;;;2.38;0.80;;;;;;;;;;5090491;28;20158;-67
2022/09/02 11:34:33;;;;;;;4.03;0.98;;;;;;;;;;5090517;28;20166;-67
2022/09/02 11:36:59;;;;;;;3.13;0.80;;;;;;;;;;5083114;28;20089;-67
2022/09/02 11:39:32;;;;;;;2.33;0.85;;;;;;;;;;5089456;28;20081;-67
2022/09/02 11:42:03;;;;;;;2.92;1.00;;;;;;;;;;5091067;28;20040;-69
2022/09/02 11:44:39;;;;;;;3.17;0.80;;;;;;;;;;5091031;28;20398;-67
2022/09/02 11:47:06;;;;;;;8.25;0.98;;;;;;;;;;5088941;28;20475;-67
2022/09/02 11:49:37;;;;;;;3.10;1.00;;;;;;;;;;5088752;28;20027;-67
2022/09/02 11:52:05;;;;;;;3.17;0.90;;;;;;;;;;5090831;28;20012;-67
2022/09/02 11:54:34;;;;;;;3.30;1.00;;;;;;;;;;5090880;28;20026;-67
2022/09/02 11:57:01;;;;;;;6.60;0.98;;;;;;;;;;5089314;28;20460;-67
2022/09/02 12:00:05;;;;;;;3.67;0.80;;;;;;;;;;5090281;28;20026;-68
2022/09/02 12:02:57;;;;;;;4.00;0.75;;;;;;;;;;5047749;28;20031;-68
2022/09/02 12:05:28;;;;;;;5.03;1.10;;;;;;;;;;5029333;28;20152;-67
2022/09/02 12:08:03;;;;;;;2.58;0.85;;;;;;;;;;5047562;28;20401;-68
2022/09/02 12:10:47;;;;;;;2.08;0.73;;;;;;;;;;5046567;28;20520;-68
2022/09/02 12:13:30;;;;;;;1.98;0.90;;;;;;;;;;5047565;28;20033;-68
2022/09/02 12:16:19;;;;;;;3.60;0.95;;;;;;;;;;5047876;28;20529;-68
2022/09/02 12:18:45;;;;;;;2.78;0.90;;;;;;;;;;5011123;28;20033;-68
2022/09/02 12:21:11;;;;;;;1.50;0.70;;;;;;;;;;5046364;28;20112;-70
2022/09/02 12:23:52;;;;;;;7.47;0.93;;;;;;;;;;5047352;28;20021;-67
2022/09/02 12:26:20;;;;;;;3.10;1.33;;;;;;;;;;5046305;28;20047;-69
2022/09/02 12:28:47;;;;;;;5.07;0.90;;;;;;;;;;5047440;28;20017;-68
2022/09/02 12:31:14;;;;;;;4.85;0.90;;;;;;;;;;5047300;28;20023;-68
2022/09/02 12:33:41;;;;;;;2.95;0.90;;;;;;;;;;5071781;28;20067;-68
2022/09/02 12:36:07;;;;;;;4.97;1.02;;;;;;;;;;5086390;28;20524;-67
2022/09/02 12:38:32;;;;;;;4.22;0.88;;;;;;;;;;5089835;28;20120;-67
2022/09/02 12:41:04;;;;;;;4.50;0.90;;;;;;;;;;5089116;28;20372;-68
2022/09/02 12:43:36;;;;;;;1.20;0.70;;;;;;;;;;5089738;28;20425;-66
2022/09/02 12:46:31;;;;;;;4.88;1.17;;;;;;;;;;5089069;28;20038;-68
2022/09/02 12:49:15;;;;;;;5.15;0.85;;;;;;;;;;5071166;28;20453;-70
2022/09/02 12:51:52;;;;;;;4.18;0.95;;;;;;;;;;5088846;28;20061;-69
2022/09/02 12:54:22;;;;;;;2.53;0.93;;;;;;;;;;5089901;28;20044;-68
2022/09/02 12:56:47;;;;;;;3.45;0.93;;;;;;;;;;5090048;28;20030;-68
2022/09/02 12:59:22;;;;;;;3.42;0.88;;;;;;;;;;5085951;28;20430;-70
2022/09/02 13:02:06;;;;;;;5.68;1.20;;;;;;;;;;5089213;28;20468;-68
2022/09/02 13:04:37;;;;;;;2.75;1.00;;;;;;;;;;5088566;28;20085;-68
2022/09/02 13:07:30;;;;;;;5.05;1.10;;;;;;;;;;5090113;28;20516;-67
2022/09/02 13:09:58;;;;;;;6.10;0.90;;;;;;;;;;5089703;28;20103;-67
2022/09/02 13:12:42;;;;;;;6.15;1.00;;;;;;;;;;5088490;28;20098;-68
2022/09/02 13:15:23;;;;;;;4.53;0.93;;;;;;;;;;5087935;28;20051;-69
2022/09/02 13:18:07;;;;;;;2.63;0.82;;;;;;;;;;5089998;28;20497;-68
2022/09/02 13:20:51;;;;;;;1.95;0.95;;;;;;;;;;5087579;28;20020;-68
2022/09/02 13:23:40;;;;;;;3.15;0.80;;;;;;;;;;5089631;28;20365;-68
2022/09/02 13:26:16;;;;;;;2.83;0.73;;;;;;;;;;5084867;28;20371;-68
2022/09/02 13:28:47;;;;;;;3.78;0.85;;;;;;;;;;5090472;28;20023;-68
2022/09/02 13:31:26;;;;;;;2.40;1.00;;;;;;;;;;5089492;28;20021;-69
2022/09/02 13:34:11;;;;;;;2.42;0.90;;;;;;;;;;5088074;28;20035;-68
2022/09/02 13:36:42;;;;;;;2.75;1.10;;;;;;;;;;5086958;28;20472;-68
2022/09/02 13:39:18;;;;;;;3.25;0.88;;;;;;;;;;5086943;28;20027;-68
2022/09/02 13:41:49;;;;;;;3.47;0.90;;;;;;;;;;5088633;28;20032;-68
2022/09/02 13:44:25;;;;;;;2.13;1.00;;;;;;;;;;5090179;28;20008;-70
2022/09/02 13:47:18;;;;;;;2.53;1.00;;;;;;;;;;5091780;28;20046;-69
2022/09/02 13:49:45;;;;;;;5.20;0.90;;;;;;;;;;5082159;28;20028;-68
2022/09/02 13:52:15;;;;;;;2.42;0.90;;;;;;;;;;5092442;28;20111;-68
2022/09/02 13:54:43;;;;;;;5.97;1.00;;;;;;;;;;5092752;28;20016;-68
2022/09/02 13:57:10;;;;;;;3.17;1.00;;;;;;;;;;5093066;28;20055;-70
2022/09/02 13:59:39;;;;;;;4.95;0.98;;;;;;;;;;5090981;28;20028;-65
2022/09/02 14:02:17;;;;;;;2.95;0.93;;;;;;;;;;5092097;28;20016;-66
2022/09/02 14:04:42;;;;;;;2.55;0.82;;;;;;;;;;5091048;28;20034;-67
2022/09/02 14:07:08;;;;;;;2.83;1.02;;;;;;;;;;5092753;28;20045;-66
2022/09/02 14:09:34;;;;;;;3.10;0.90;;;;;;;;;;5090590;28;20099;-66
2022/09/02 14:11:59;;;;;;;2.38;1.00;;;;;;;;;;5090937;28;20020;-68
2022/09/02 14:14:25;;;;;;;4.57;1.00;;;;;;;;;;5089272;28;20074;-66
2022/09/02 14:16:51;;;;;;;2.95;0.80;;;;;;;;;;5087792;28;20349;-66
2022/09/02 14:19:16;;;;;;;2.70;0.90;;;;;;;;;;5087949;28;20013;-67
2022/09/02 14:21:49;;;;;;;1.48;0.77;;;;;;;;;;5089744;28;20035;-67
2022/09/02 14:24:18;;;;;;;4.75;1.52;;;;;;;;;;5090959;28;20062;-67
2022/09/02 14:26:45;;;;;;;4.30;0.80;;;;;;;;;;5089807;28;20190;-67
2022/09/02 14:29:12;;;;;;;6.43;1.02;;;;;;;;;;5087817;28;20019;-68
2022/09/02 14:31:38;;;;;;;3.38;0.80;;;;;;;;;;5090140;28;20016;-68
2022/09/02 14:34:05;;;;;;;4.00;0.98;;;;;;;;;;5088202;28;20071;-65
2022/09/02 14:36:34;;;;;;;2.72;0.85;;;;;;;;;;5089524;28;20032;-65
2022/09/02 14:39:09;;;;;;;4.10;1.00;;;;;;;;;;5088606;28;20028;-66
2022/09/02 14:41:37;;;;;;;4.32;1.10;;;;;;;;;;5087099;28;20024;-66
2022/09/02 14:44:14;;;;;;;3.17;0.90;;;;;;;;;;5090697;28;20040;-66
2022/09/02 14:46:43;;;;;;;4.00;1.00;;;;;;;;;;5087692;28;20476;-66
2022/09/02 14:49:10;;;;;;;2.53;0.80;;;;;;;;;;5091836;28;20044;-66
2022/09/02 14:51:35;;;;;;;6.03;1.10;;;;;;;;;;5086627;28;20054;-65
2022/09/02 14:54:00;;;;;;;3.10;0.80;;;;;;;;;;5086597;28;20492;-67